Time;durP1;ratioP1;P1;durP2;ratioP2;P2;SDS_P1;SDS_P2;PMS_P1;PMS_P2;Temp;Humidity;BMP_temperature;BMP_pressure;BME280_temperature;BME280_humidity;BME280_pressure;Samples;Min_cycle;Max_cycle;Signal;HPM_P1;HPM_P2
2023/01/13 00:00:57;;;;;;;3.05;0.80;;;;;;;5.66;100.00;95370.44;5006593;28;20046;-74
2023/01/13 00:03:23;;;;;;;3.13;0.90;;;;;;;5.81;100.00;95366.44;4994995;28;20049;-76
2023/01/13 00:05:48;;;;;;;1.02;0.63;;;;;;;5.88;100.00;95377.47;4993465;28;20043;-75
2023/01/13 00:08:14;;;;;;;5.18;1.10;;;;;;;5.80;100.00;95375.28;4986112;28;20788;-74
2023/01/13 00:10:40;;;;;;;1.63;0.80;;;;;;;5.82;100.00;95362.75;5007282;28;20131;-75
2023/01/13 00:13:05;;;;;;;3.28;0.90;;;;;;;5.85;100.00;95364.91;4997476;28;20117;-75
2023/01/13 00:15:32;;;;;;;1.60;0.80;;;;;;;5.90;100.00;95362.34;5017359;28;20480;-74
2023/01/13 00:17:57;;;;;;;1.27;0.73;;;;;;;5.92;100.00;95352.47;5011367;28;20045;-75
2023/01/13 00:20:23;;;;;;;1.25;0.88;;;;;;;5.96;100.00;95343.13;5001063;28;20034;-75
2023/01/13 00:22:48;;;;;;;2.10;0.50;;;;;;;6.06;100.00;95348.47;5003957;28;20428;-76
2023/01/13 00:25:14;;;;;;;0.50;0.50;;;;;;;6.13;100.00;95352.72;4988624;28;20073;-75
2023/01/13 00:27:40;;;;;;;3.95;0.90;;;;;;;6.14;100.00;95349.09;5007789;28;20037;-76
2023/01/13 00:30:06;;;;;;;2.25;0.70;;;;;;;6.32;100.00;95340.09;5004677;28;20046;-75
2023/01/13 00:32:32;;;;;;;2.35;0.70;;;;;;;6.30;100.00;95332.50;4977568;28;20050;-76
2023/01/13 00:34:58;;;;;;;1.75;0.80;;;;;;;6.27;100.00;95327.78;5013459;28;20034;-76
2023/01/13 00:37:24;;;;;;;2.17;0.70;;;;;;;6.17;100.00;95336.31;5002926;28;20039;-75
2023/01/13 00:39:51;;;;;;;0.68;0.40;;;;;;;6.27;100.00;95333.00;4991466;28;20042;-75
2023/01/13 00:45:01;;;;;;;1.25;0.50;;;;;;;6.46;100.00;95322.22;5011097;28;20030;-77
2023/01/13 00:47:26;;;;;;;5.63;0.70;;;;;;;6.38;100.00;95326.84;5002916;28;20411;-76
2023/01/13 00:49:52;;;;;;;3.40;0.73;;;;;;;6.23;100.00;95324.09;5005245;28;20046;-76
2023/01/13 00:52:17;;;;;;;3.55;0.60;;;;;;;6.38;100.00;95326.84;4986828;28;20046;-75
2023/01/13 00:54:43;;;;;;;1.02;0.80;;;;;;;6.39;100.00;95336.28;4988822;28;20164;-75
2023/01/13 00:57:08;;;;;;;1.65;0.75;;;;;;;6.23;100.00;95319.66;5005206;28;20039;-76
2023/01/13 00:59:34;;;;;;;1.40;0.63;;;;;;;6.27;100.00;95329.63;5006932;28;20530;-75
2023/01/13 01:01:59;;;;;;;2.97;0.63;;;;;;;6.46;100.00;95330.06;4992983;28;20050;-75
2023/01/13 01:04:25;;;;;;;1.00;0.57;;;;;;;6.38;100.00;95329.47;5002538;28;20515;-75
2023/01/13 01:06:51;;;;;;;4.10;0.80;;;;;;;6.48;100.00;95333.19;4994351;28;20042;-76
2023/01/13 01:09:17;;;;;;;1.17;0.80;;;;;;;6.47;100.00;95331.66;5010691;28;20063;-76
2023/01/13 01:11:43;;;;;;;1.95;0.90;;;;;;;6.52;100.00;95339.53;4991419;28;20038;-76
2023/01/13 01:14:11;;;;;;;1.92;1.05;;;;;;;6.67;100.00;95321.34;5003351;28;20439;-76
2023/01/13 01:16:38;;;;;;;2.38;0.60;;;;;;;6.64;100.00;95316.63;4993041;28;20112;-76
2023/01/13 01:19:04;;;;;;;2.17;0.95;;;;;;;6.58;100.00;95322.88;4993249;28;20042;-75
2023/01/13 01:21:30;;;;;;;4.10;0.90;;;;;;;6.57;100.00;95322.06;4982547;28;20516;-75
2023/01/13 01:23:58;;;;;;;1.48;0.65;;;;;;;6.50;100.00;95323.31;4996724;28;20041;-74
2023/01/13 01:26:26;;;;;;;1.42;0.60;;;;;;;6.74;100.00;95324.56;5011100;28;20046;-74
2023/01/13 01:28:52;;;;;;;1.42;0.80;;;;;;;6.85;100.00;95322.81;5025457;28;20050;-74
2023/01/13 01:31:32;;;;;;;2.35;0.65;;;;;;;6.93;100.00;95308.50;5010697;28;20068;-74
2023/01/13 01:33:59;;;;;;;1.85;0.50;;;;;;;6.79;100.00;95307.34;5009419;28;20438;-74
2023/01/13 01:36:27;;;;;;;4.30;0.95;;;;;;;6.75;100.00;95315.69;5010045;28;20053;-75
2023/01/13 01:38:56;;;;;;;2.65;0.52;;;;;;;6.83;100.00;95313.66;5019051;28;20038;-75
2023/01/13 01:41:23;;;;;;;1.90;0.47;;;;;;;6.78;100.00;95306.56;4990192;28;20041;-76
2023/01/13 01:44:05;;;;;;;1.85;0.70;;;;;;;6.89;100.00;95307.41;5002859;28;20053;-75
2023/01/13 01:46:40;;;;;;;2.25;0.50;;;;;;;7.06;98.59;95297.59;4990538;28;20080;-75
2023/01/13 01:49:09;;;;;;;0.50;0.50;;;;;;;6.90;100.00;95303.75;5009499;28;20045;-76
2023/01/13 01:51:44;;;;;;;1.58;0.38;;;;;;;6.85;100.00;95316.78;4978109;28;20054;-75
2023/01/13 01:54:14;;;;;;;1.20;0.38;;;;;;;6.80;100.00;95303.69;4987076;28;20047;-75
2023/01/13 01:56:42;;;;;;;3.55;0.50;;;;;;;6.90;99.54;95303.75;4980586;28;20047;-75
2023/01/13 01:59:08;;;;;;;2.08;0.68;;;;;;;6.92;98.13;95296.44;4983693;28;20049;-75
2023/01/13 02:01:35;;;;;;;0.65;0.50;;;;;;;6.92;98.05;95296.44;4992603;28;20047;-75
2023/01/13 02:04:13;;;;;;;1.40;1.02;;;;;;;6.88;98.01;95290.13;5001519;28;20041;-75
2023/01/13 02:06:39;;;;;;;1.50;0.47;;;;;;;6.93;97.37;95292.78;5010132;28;20135;-76
2023/01/13 02:09:06;;;;;;;1.35;0.60;;;;;;;6.85;98.31;95286.22;5009002;28;20038;-75
2023/01/13 02:14:21;;;;;;;2.15;0.80;;;;;;;6.90;96.64;95272.38;5000098;28;20046;-76
2023/01/13 02:17:09;;;;;;;1.17;0.70;;;;;;;6.79;97.18;95268.88;4991979;28;20099;-75
2023/01/13 02:20:13;;;;;;;3.78;0.55;;;;;;;6.97;95.14;95272.94;4975210;28;20046;-74
2023/01/13 02:26:20;;;;;;;1.80;0.60;;;;;;;7.05;93.22;95259.41;4992239;28;20066;-75
2023/01/13 02:32:28;;;;;;;2.40;0.50;;;;;;;6.92;94.21;95249.34;4993897;28;20046;-75
2023/01/13 02:35:02;;;;;;;2.20;0.65;;;;;;;6.92;93.54;95249.34;4998268;28;20046;-75
2023/01/13 02:37:31;;;;;;;1.45;0.55;;;;;;;7.01;93.39;95247.84;4993836;28;20069;-75
2023/01/13 02:40:18;;;;;;;1.17;0.70;;;;;;;7.05;92.99;95243.69;4992557;28;20042;-76
2023/01/13 02:45:51;;;;;;;0.73;0.50;;;;;;;7.02;92.18;95233.72;5005339;28;20097;-76
2023/01/13 02:48:20;;;;;;;2.65;0.40;;;;;;;6.93;94.01;95232.63;5012003;28;20049;-75
2023/01/13 02:50:52;;;;;;;1.75;0.57;;;;;;;6.94;94.36;95236.81;4991716;28;20045;-75
2023/01/13 02:53:29;;;;;;;2.60;0.47;;;;;;;6.57;100.00;95248.06;4993497;28;20451;-76
2023/01/13 02:55:57;;;;;;;0.88;0.60;;;;;;;6.39;100.00;95236.97;5002277;28;20052;-75
2023/01/13 02:58:27;;;;;;;1.90;0.70;;;;;;;6.26;100.00;95239.19;5005014;28;20037;-75
2023/01/13 03:00:53;;;;;;;2.67;0.82;;;;;;;6.05;100.00;95231.94;5000626;28;20041;-75
2023/01/13 03:03:18;;;;;;;1.10;0.47;;;;;;;5.96;100.00;95228.19;4994719;28;20140;-74
2023/01/13 03:05:47;;;;;;;3.78;0.77;;;;;;;6.06;100.00;95228.31;5005182;28;20058;-76
2023/01/13 03:08:14;;;;;;;4.03;0.70;;;;;;;5.94;100.00;95219.00;5011190;28;20095;-75
2023/01/13 03:10:49;;;;;;;3.78;0.90;;;;;;;6.01;100.00;95219.63;5009226;28;20121;-75
2023/01/13 03:13:24;;;;;;;2.90;1.10;;;;;;;5.86;100.00;95217.63;4985438;28;20046;-75
2023/01/13 03:16:01;;;;;;;1.75;0.77;;;;;;;5.76;100.00;95213.09;4997054;28;20051;-76
2023/01/13 03:18:49;;;;;;;0.95;0.70;;;;;;;5.77;100.00;95209.44;4996305;28;20046;-75
2023/01/13 03:21:24;;;;;;;2.78;0.80;;;;;;;5.72;100.00;95210.19;4993929;28;20056;-75
2023/01/13 03:23:56;;;;;;;2.92;0.90;;;;;;;5.69;100.00;95208.06;4994311;28;20047;-75
2023/01/13 03:26:44;;;;;;;2.20;1.63;;;;;;;5.68;100.00;95210.91;5005898;28;20042;-75
2023/01/13 03:29:16;;;;;;;3.03;0.98;;;;;;;5.58;100.00;95195.94;5001277;28;20068;-75
2023/01/13 03:32:14;;;;;;;1.00;0.73;;;;;;;5.59;100.00;95187.06;5010979;28;20045;-75
2023/01/13 03:34:47;;;;;;;2.63;0.82;;;;;;;5.65;100.00;95201.75;4974251;28;20069;-74
2023/01/13 03:37:18;;;;;;;5.75;1.10;;;;;;;5.64;100.00;95205.38;4998524;28;20042;-75
2023/01/13 03:39:49;;;;;;;3.30;0.73;;;;;;;5.56;100.00;95211.06;5005048;28;20049;-75
2023/01/13 03:42:20;;;;;;;2.35;1.10;;;;;;;5.58;100.00;95208.97;4982320;28;20054;-75
2023/01/13 03:44:54;;;;;;;3.42;0.95;;;;;;;5.53;100.00;95201.09;5003653;28;20488;-75
2023/01/13 03:47:34;;;;;;;2.78;0.63;;;;;;;5.57;100.00;95210.00;4995137;28;20107;-75
2023/01/13 03:50:18;;;;;;;4.25;0.85;;;;;;;5.43;100.00;95209.63;5004826;28;20042;-75
2023/01/13 03:52:48;;;;;;;3.03;0.80;;;;;;;5.26;100.00;95207.06;5006120;28;20555;-75
2023/01/13 03:55:27;;;;;;;0.95;0.68;;;;;;;5.09;100.00;95201.88;4994632;28;20045;-75
2023/01/13 03:58:29;;;;;;;2.28;0.80;;;;;;;5.34;100.00;95198.81;4997719;28;20042;-76
2023/01/13 04:01:10;;;;;;;1.08;0.65;;;;;;;5.32;100.00;95202.69;4962699;28;20062;-75
2023/01/13 04:04:04;;;;;;;1.95;0.52;;;;;;;5.51;100.00;95195.34;5011813;28;20044;-75
2023/01/13 04:06:37;;;;;;;4.80;0.70;;;;;;;5.82;100.00;95200.84;5014937;28;20041;-75
2023/01/13 04:09:28;;;;;;;2.95;0.88;;;;;;;6.16;100.00;95195.47;5003249;28;20168;-74
2023/01/13 04:12:01;;;;;;;0.57;0.47;;;;;;;6.34;100.00;95181.25;5008583;28;20049;-75
2023/01/13 04:14:27;;;;;;;0.50;0.40;;;;;;;6.63;94.50;95179.06;4985109;28;20436;-75
2023/01/13 04:16:54;;;;;;;1.50;0.82;;;;;;;6.98;90.33;95175.06;5010184;28;20049;-75
2023/01/13 04:19:20;;;;;;;3.00;0.90;;;;;;;7.05;89.93;95180.91;4993060;28;20050;-75
2023/01/13 04:21:46;;;;;;;2.40;0.73;;;;;;;7.16;87.22;95180.94;5014710;28;20096;-76
2023/01/13 04:24:11;;;;;;;2.47;0.80;;;;;;;7.20;85.62;95182.00;4998221;28;20043;-75
2023/01/13 04:26:37;;;;;;;2.55;1.10;;;;;;;7.34;84.33;95188.34;4985194;28;20066;-75
2023/01/13 04:29:02;;;;;;;2.05;0.93;;;;;;;7.46;81.47;95196.75;5012153;28;20036;-74
2023/01/13 04:31:28;;;;;;;0.55;0.55;;;;;;;7.44;82.43;95177.91;5013456;28;20535;-75
2023/01/13 04:33:53;;;;;;;2.97;1.13;;;;;;;7.35;82.93;95178.66;4999717;28;20038;-76
2023/01/13 04:36:23;;;;;;;2.13;0.70;;;;;;;7.40;82.78;95171.59;4982904;28;20435;-76
2023/01/13 04:38:49;;;;;;;2.25;0.90;;;;;;;7.28;83.51;95168.41;5005676;28;20061;-76
2023/01/13 04:41:15;;;;;;;1.88;0.68;;;;;;;7.45;81.42;95168.97;5005386;28;20046;-76
2023/01/13 04:43:40;;;;;;;4.95;0.80;;;;;;;7.47;83.00;95176.59;5002888;28;20050;-76
2023/01/13 04:46:06;;;;;;;1.88;0.65;;;;;;;7.57;79.50;95170.59;4991979;28;20126;-76
2023/01/13 04:48:31;;;;;;;0.95;0.50;;;;;;;7.54;81.51;95176.34;5009903;28;20092;-76
2023/01/13 04:50:57;;;;;;;3.95;0.90;;;;;;;7.56;79.55;95169.03;5009749;28;20553;-74
2023/01/13 04:53:22;;;;;;;2.65;0.68;;;;;;;7.68;78.66;95166.94;4999338;28;20046;-75
2023/01/13 04:55:48;;;;;;;1.45;0.70;;;;;;;7.75;78.09;95151.78;4977694;28;20415;-75
2023/01/13 04:58:14;;;;;;;1.52;0.80;;;;;;;7.74;79.37;95147.59;5006922;28;20049;-77
2023/01/13 05:00:40;;;;;;;1.00;0.88;;;;;;;7.72;79.96;95151.53;5010354;28;20499;-76
2023/01/13 05:03:05;;;;;;;1.83;0.50;;;;;;;7.88;78.32;95154.94;4998916;28;20042;-75
2023/01/13 05:05:31;;;;;;;1.77;0.63;;;;;;;7.92;78.15;95150.75;4992156;28;20041;-75
2023/01/13 05:07:57;;;;;;;1.73;0.70;;;;;;;7.87;79.49;95154.13;5004192;28;20061;-75
2023/01/13 05:10:22;;;;;;;1.95;0.88;;;;;;;8.07;77.70;95158.63;4992884;28;20050;-76
2023/01/13 05:18:17;;;;;;;0.93;0.65;;;;;;;8.00;79.79;95154.69;5006115;28;20065;-75
2023/01/13 05:20:44;;;;;;;1.23;0.73;;;;;;;8.01;78.90;95164.91;5010782;28;20046;-76
2023/01/13 05:25:53;;;;;;;2.95;0.63;;;;;;;8.22;77.02;95159.69;4991917;28;20038;-75
2023/01/13 05:28:19;;;;;;;1.45;0.60;;;;;;;8.28;77.24;95158.63;4992263;28;20468;-74
2023/01/13 05:30:47;;;;;;;0.60;0.60;;;;;;;8.36;76.81;95154.69;4990973;28;20488;-75
2023/01/13 05:33:15;;;;;;;2.17;0.93;;;;;;;8.21;79.06;95153.66;5012707;28;20042;-74
2023/01/13 05:35:43;;;;;;;1.55;0.52;;;;;;;8.19;78.90;95154.94;4980438;28;20046;-75
2023/01/13 05:38:10;;;;;;;4.07;1.20;;;;;;;8.30;78.02;95140.78;4985097;28;20049;-74
2023/01/13 05:43:23;;;;;;;0.85;0.80;;;;;;;8.25;77.96;95153.91;5008864;28;20555;-75
2023/01/13 05:45:52;;;;;;;1.58;0.60;;;;;;;8.25;77.94;95159.16;5003164;28;20049;-75
2023/01/13 05:48:20;;;;;;;1.48;0.70;;;;;;;8.10;78.65;95152.88;5003152;28;20123;-75
2023/01/13 05:50:46;;;;;;;1.55;0.70;;;;;;;8.27;77.49;95162.28;4996728;28;20098;-75
2023/01/13 05:53:11;;;;;;;2.00;0.70;;;;;;;8.28;76.40;95158.63;5005504;28;20046;-75
2023/01/13 05:55:39;;;;;;;1.25;0.80;;;;;;;8.36;76.20;95145.00;4985603;28;20053;-75
2023/01/13 05:58:06;;;;;;;1.27;0.80;;;;;;;8.32;77.58;95149.19;5006175;28;20128;-73
2023/01/13 06:00:31;;;;;;;2.05;0.50;;;;;;;8.35;76.98;95138.19;4997770;28;20064;-75
2023/01/13 06:02:57;;;;;;;2.85;0.63;;;;;;;8.31;77.70;95132.66;5011168;28;20564;-75
2023/01/13 06:05:23;;;;;;;0.63;0.60;;;;;;;8.36;77.87;95145.00;4991600;28;20119;-76
2023/01/13 06:07:49;;;;;;;1.65;0.75;;;;;;;8.37;78.25;95145.78;4997269;28;20038;-76
2023/01/13 06:10:16;;;;;;;1.85;0.77;;;;;;;8.37;78.65;95136.06;4977669;28;20046;-75
2023/01/13 06:12:41;;;;;;;1.55;0.70;;;;;;;8.33;78.49;95156.00;5007805;28;20046;-75
2023/01/13 06:15:07;;;;;;;0.57;0.52;;;;;;;8.37;78.87;95151.03;5030567;28;20444;-75
2023/01/13 06:17:33;;;;;;;2.47;0.52;;;;;;;8.43;77.92;95153.38;4985974;28;20046;-76
2023/01/13 06:19:58;;;;;;;2.30;0.95;;;;;;;8.32;79.62;95139.50;4996343;28;20030;-75
2023/01/13 06:22:29;;;;;;;1.55;0.98;;;;;;;8.43;77.92;95142.91;5007177;28;20053;-76
2023/01/13 06:24:55;;;;;;;2.85;0.90;;;;;;;8.42;78.28;95149.19;5004962;28;20041;-74
2023/01/13 06:27:21;;;;;;;3.40;1.08;;;;;;;8.43;78.66;95140.28;5004782;28;20049;-76
2023/01/13 06:29:47;;;;;;;3.75;0.85;;;;;;;8.48;78.59;95145.53;4992149;28;20038;-76
2023/01/13 06:32:20;;;;;;;0.88;0.80;;;;;;;8.38;79.73;95148.13;4987495;28;20104;-76
2023/01/13 06:34:57;;;;;;;1.45;0.90;;;;;;;8.30;80.57;95143.41;5004741;28;20050;-76
2023/01/13 06:37:24;;;;;;;2.97;0.95;;;;;;;8.31;80.53;95148.41;4988559;28;20088;-76
2023/01/13 06:39:55;;;;;;;1.25;0.70;;;;;;;8.51;78.30;95146.06;4999392;28;20038;-76
2023/01/13 06:45:06;;;;;;;2.30;0.88;;;;;;;8.40;80.46;95155.75;4996181;28;20034;-75
2023/01/13 06:47:31;;;;;;;1.98;0.80;;;;;;;8.46;79.23;95154.69;5000498;28;21372;-75
2023/01/13 06:49:58;;;;;;;1.45;0.63;;;;;;;8.35;79.97;95164.41;5003408;28;20061;-75
2023/01/13 06:52:26;;;;;;;2.97;1.00;;;;;;;8.26;81.42;95155.47;5001979;28;20042;-74
2023/01/13 06:54:51;;;;;;;1.10;0.73;;;;;;;8.32;80.35;95164.94;4996619;28;20038;-76
2023/01/13 06:57:17;;;;;;;1.63;0.95;;;;;;;8.31;79.64;95169.38;4998514;28;20038;-76
2023/01/13 06:59:43;;;;;;;0.63;0.63;;;;;;;8.37;78.97;95157.03;4983773;28;20070;-77
2023/01/13 07:02:08;;;;;;;4.20;1.08;;;;;;;8.28;79.50;95169.91;4982922;28;20053;-75
2023/01/13 07:04:34;;;;;;;1.92;0.88;;;;;;;8.27;80.89;95167.53;4996666;28;20053;-76
2023/01/13 07:06:59;;;;;;;1.52;0.65;;;;;;;8.28;79.69;95158.63;5002922;28;20045;-76
2023/01/13 07:09:25;;;;;;;1.08;0.85;;;;;;;8.17;80.94;95170.16;4984053;28;20058;-76
2023/01/13 07:11:51;;;;;;;1.75;0.90;;;;;;;8.15;81.99;95171.22;4998070;28;20038;-75
2023/01/13 07:17:01;;;;;;;1.83;0.88;;;;;;;8.14;81.55;95163.59;4998717;28;20408;-75
2023/01/13 07:19:27;;;;;;;3.85;1.58;;;;;;;8.13;81.90;95162.81;5009308;28;20046;-74
2023/01/13 07:21:52;;;;;;;2.72;0.95;;;;;;;8.02;82.49;95171.72;5006411;28;20046;-74
2023/01/13 07:24:19;;;;;;;1.80;1.02;;;;;;;8.14;82.71;95168.84;4997128;28;20053;-73
2023/01/13 07:26:45;;;;;;;1.77;1.00;;;;;;;8.13;80.99;95172.50;5008547;28;20057;-74
2023/01/13 07:29:11;;;;;;;2.40;1.10;;;;;;;8.19;80.02;95170.69;5000552;28;20038;-74
2023/01/13 07:31:37;;;;;;;1.77;1.00;;;;;;;8.19;80.49;95175.91;5010289;28;20038;-76
2023/01/13 07:34:04;;;;;;;1.98;1.00;;;;;;;8.13;80.65;95173.31;4995311;28;20049;-74
2023/01/13 07:36:29;;;;;;;1.58;0.98;;;;;;;8.07;80.36;95176.97;5035996;28;20026;-71
2023/01/13 07:38:55;;;;;;;2.15;1.17;;;;;;;8.14;80.03;95172.25;5038373;28;20030;-70
2023/01/13 07:44:05;;;;;;;2.10;1.17;;;;;;;8.06;81.07;95183.28;5023234;28;20025;-70
2023/01/13 07:46:33;;;;;;;2.15;1.13;;;;;;;8.03;81.76;95183.78;5035918;28;20057;-71
2023/01/13 07:48:59;;;;;;;4.65;1.40;;;;;;;8.10;79.48;95179.09;5039840;28;20029;-71
2023/01/13 07:51:24;;;;;;;1.67;0.90;;;;;;;8.09;80.13;95187.97;5046846;28;20086;-70
2023/01/13 07:53:50;;;;;;;4.13;0.88;;;;;;;8.02;82.06;95182.22;5016129;28;21339;-70
2023/01/13 07:56:15;;;;;;;1.05;0.90;;;;;;;8.04;80.30;95185.34;5016259;28;20090;-71
2023/01/13 07:58:41;;;;;;;2.08;1.00;;;;;;;8.17;79.01;95193.75;5004200;28;20038;-74
2023/01/13 08:01:08;;;;;;;3.22;1.10;;;;;;;8.07;79.56;95179.59;4998578;28;20038;-74
2023/01/13 08:03:34;;;;;;;1.17;0.88;;;;;;;8.18;78.24;95195.34;4992518;28;20522;-73
2023/01/13 08:06:00;;;;;;;2.10;1.10;;;;;;;8.23;78.44;95190.06;5009281;28;20042;-74
2023/01/13 08:08:26;;;;;;;1.23;0.65;;;;;;;8.28;76.65;95192.72;5013382;28;20049;-73
2023/01/13 08:10:51;;;;;;;1.75;1.02;;;;;;;8.22;78.07;95191.16;5001912;28;20045;-74
2023/01/13 08:13:19;;;;;;;1.63;0.90;;;;;;;8.21;79.24;95189.56;5005945;28;20035;-73
2023/01/13 08:15:49;;;;;;;4.00;1.10;;;;;;;8.28;77.24;95195.34;4992943;28;20039;-75
2023/01/13 08:18:18;;;;;;;1.98;0.93;;;;;;;8.26;77.69;95192.19;5009852;28;20498;-73
2023/01/13 08:20:44;;;;;;;2.30;1.00;;;;;;;8.20;80.46;95177.50;5011598;28;20038;-72
2023/01/13 08:23:09;;;;;;;6.03;1.10;;;;;;;8.25;78.02;95183.53;4994166;28;20054;-73
2023/01/13 08:25:35;;;;;;;7.05;1.20;;;;;;;8.25;78.17;95180.13;5001578;28;20038;-74
2023/01/13 08:28:00;;;;;;;2.90;1.00;;;;;;;8.29;78.03;95181.19;5012057;28;20042;-73
2023/01/13 08:30:27;;;;;;;2.50;1.05;;;;;;;8.34;77.36;95178.56;4999929;28;20050;-72
2023/01/13 08:32:53;;;;;;;1.30;0.98;;;;;;;8.33;79.06;95177.78;4976211;28;20054;-73
2023/01/13 08:35:20;;;;;;;1.92;0.95;;;;;;;8.38;77.47;95184.84;4976912;28;22027;-75
2023/01/13 08:37:47;;;;;;;3.10;1.00;;;;;;;8.41;77.56;95184.31;5012039;28;20046;-75
2023/01/13 08:40:14;;;;;;;3.97;1.35;;;;;;;8.46;77.06;95189.59;5012524;28;20050;-75
2023/01/13 08:42:40;;;;;;;5.30;1.10;;;;;;;8.43;77.50;95184.84;5005389;28;20097;-74
2023/01/13 08:45:07;;;;;;;2.90;0.90;;;;;;;8.42;78.29;95183.28;4997254;28;20451;-75
2023/01/13 08:47:33;;;;;;;2.20;0.88;;;;;;;8.60;76.24;95181.19;5010582;28;20042;-74
2023/01/13 08:49:58;;;;;;;2.35;0.75;;;;;;;8.60;76.44;95183.81;5025688;28;20053;-74
2023/01/13 08:52:24;;;;;;;1.35;0.85;;;;;;;8.63;77.10;95183.28;5013397;28;20046;-73
2023/01/13 08:54:49;;;;;;;1.52;1.00;;;;;;;8.58;78.94;95178.06;4979359;28;20046;-74
2023/01/13 08:57:18;;;;;;;1.17;0.93;;;;;;;8.65;77.80;95183.81;5010620;28;20125;-74
2023/01/13 08:59:43;;;;;;;1.08;0.63;;;;;;;8.63;76.69;95185.91;5012502;28;20503;-75
2023/01/13 09:02:18;;;;;;;1.25;0.90;;;;;;;8.72;75.39;95200.06;5004210;28;20056;-73
2023/01/13 09:04:44;;;;;;;2.35;0.75;;;;;;;8.83;74.04;95209.50;4992888;28;20074;-74
2023/01/13 09:07:10;;;;;;;1.35;0.60;;;;;;;8.88;72.58;95197.41;4999318;28;20049;-74
2023/01/13 09:09:36;;;;;;;0.70;0.45;;;;;;;8.97;72.26;95191.34;4994505;28;20045;-74
2023/01/13 09:14:47;;;;;;;1.40;0.70;;;;;;;8.98;72.00;95198.19;4992772;28;20412;-73
2023/01/13 09:17:13;;;;;;;1.25;0.63;;;;;;;9.04;72.06;95206.81;4996608;28;20042;-75
2023/01/13 09:19:39;;;;;;;2.35;0.88;;;;;;;9.11;71.35;95202.09;5008310;28;20109;-74
2023/01/13 09:22:05;;;;;;;1.85;1.10;;;;;;;9.13;70.61;95204.44;4992889;28;20065;-75
2023/01/13 09:24:31;;;;;;;1.08;0.73;;;;;;;9.19;70.56;95211.25;4992443;28;20500;-74
2023/01/13 09:26:56;;;;;;;0.98;0.70;;;;;;;9.25;69.74;95196.25;5006954;28;20038;-75
2023/01/13 09:29:22;;;;;;;3.63;0.65;;;;;;;9.25;69.99;95201.50;5011090;28;20045;-76
2023/01/13 09:31:48;;;;;;;1.67;0.80;;;;;;;9.33;69.40;95214.09;4994183;28;20041;-75
2023/01/13 09:37:00;;;;;;;2.00;0.90;;;;;;;9.40;68.71;95214.59;5012002;28;20042;-74
2023/01/13 09:39:26;;;;;;;1.70;0.80;;;;;;;9.46;68.14;95202.22;4992998;28;20042;-74
2023/01/13 09:44:58;;;;;;;1.20;0.50;;;;;;;9.73;66.12;95217.59;5011290;28;20042;-74
2023/01/13 09:48:00;;;;;;;1.63;0.80;;;;;;;9.78;64.93;95206.28;5011591;28;20108;-76
2023/01/13 09:50:37;;;;;;;0.65;0.60;;;;;;;9.86;64.78;95190.72;5000804;28;20054;-75
2023/01/13 09:53:06;;;;;;;2.63;1.00;;;;;;;9.93;64.72;95205.38;5011999;28;20054;-75
2023/01/13 09:55:35;;;;;;;4.90;0.93;;;;;;;10.10;64.04;95187.41;4978561;28;20058;-75
2023/01/13 09:58:10;;;;;;;1.00;0.70;;;;;;;10.53;63.02;95198.16;4991565;28;20412;-75
2023/01/13 10:00:43;;;;;;;1.50;0.73;;;;;;;10.55;61.81;95190.78;5006755;28;20053;-75
2023/01/13 10:03:25;;;;;;;1.93;0.63;;;;;;;10.95;61.37;95197.78;5011582;28;20050;-75
2023/01/13 10:06:18;;;;;;;0.95;0.80;;;;;;;10.99;59.70;95188.25;5011417;28;20684;-75
2023/01/13 10:08:47;;;;;;;3.65;0.88;;;;;;;10.86;60.66;95189.69;5003998;28;20581;-74
2023/01/13 10:14:13;;;;;;;0.73;0.73;;;;;;;12.01;57.34;95183.63;4991863;28;20408;-75
2023/01/13 10:16:46;;;;;;;2.60;0.68;;;;;;;11.36;58.21;95176.25;4974394;28;20488;-75
2023/01/13 10:19:17;;;;;;;1.58;0.60;;;;;;;11.24;59.47;95169.53;4994189;28;20046;-75
2023/01/13 10:22:04;;;;;;;0.93;0.68;;;;;;;11.49;58.60;95161.63;5000625;28;20072;-75
2023/01/13 10:24:50;;;;;;;0.73;0.63;;;;;;;11.66;57.70;95169.03;5000723;28;20049;-75
2023/01/13 10:27:24;;;;;;;4.80;0.63;;;;;;;12.25;56.53;95170.31;5011302;28;20049;-75
2023/01/13 10:29:50;;;;;;;0.77;0.70;;;;;;;12.14;56.10;95161.03;5009222;28;20373;-75
2023/01/13 10:32:15;;;;;;;1.20;0.75;;;;;;;12.05;56.19;95154.81;5014552;28;20049;-79
2023/01/13 10:34:50;;;;;;;4.97;0.82;;;;;;;12.48;55.80;95157.28;4991685;28;20121;-75
2023/01/13 10:37:26;;;;;;;0.77;0.50;;;;;;;12.28;56.53;95159.22;4998759;28;20412;-75
2023/01/13 10:39:59;;;;;;;1.08;0.70;;;;;;;12.79;54.06;95146.22;4978882;28;20042;-75
2023/01/13 10:42:24;;;;;;;1.40;0.70;;;;;;;13.49;51.83;95133.81;5009149;28;20045;-75
2023/01/13 10:44:56;;;;;;;1.75;0.70;;;;;;;14.00;51.55;95151.19;4987909;28;20088;-75
2023/01/13 10:47:24;;;;;;;0.40;0.40;;;;;;;13.32;51.47;95148.38;5012867;28;20041;-75
2023/01/13 10:49:58;;;;;;;0.40;0.40;;;;;;;13.39;51.55;95147.22;4995700;28;20046;-75
2023/01/13 10:52:29;;;;;;;1.20;0.70;;;;;;;13.83;50.05;95145.75;4998216;28;20038;-75
2023/01/13 10:54:55;;;;;;;1.50;0.60;;;;;;;13.67;51.44;95126.81;5000142;28;20500;-77
2023/01/13 10:57:26;;;;;;;2.13;0.80;;;;;;;14.27;50.34;95133.63;5011743;28;20046;-77
2023/01/13 10:59:53;;;;;;;0.47;0.45;;;;;;;14.06;49.64;95143.13;5011783;28;20072;-76
2023/01/13 11:02:31;;;;;;;1.77;0.43;;;;;;;13.77;50.70;95125.81;4985123;28;20042;-75
2023/01/13 11:04:59;;;;;;;0.40;0.40;;;;;;;12.36;56.19;95138.53;5002462;28;20088;-76
2023/01/13 11:07:56;;;;;;;1.55;0.73;;;;;;;12.21;57.25;95148.25;5005214;28;20057;-77
2023/01/13 11:10:31;;;;;;;2.22;0.80;;;;;;;11.55;60.80;95163.91;5003957;28;20046;-76
2023/01/13 11:13:13;;;;;;;;;;;;;;;11.16;65.15;95149.13;5004715;28;20042;-77
2023/01/13 11:15:45;;;;;;;0.50;0.50;;;;;;;10.86;68.47;95164.19;4999635;28;19921;-75
2023/01/13 11:18:50;;;;;;;0.50;0.50;;;;;;;11.00;68.65;95158.25;4999881;28;20045;-75
2023/01/13 11:21:23;;;;;;;4.05;0.47;;;;;;;11.00;70.57;95142.44;4984305;28;20053;-75
2023/01/13 11:24:13;;;;;;;3.70;0.80;;;;;;;10.77;72.03;95144.78;5002091;28;20042;-74
2023/01/13 11:26:50;;;;;;;1.08;0.85;;;;;;;10.51;79.64;95158.19;5006626;28;20046;-73
2023/01/13 11:29:31;;;;;;;1.88;0.77;;;;;;;10.33;85.63;95148.31;5006531;28;20042;-75
2023/01/13 11:32:10;;;;;;;0.75;0.50;;;;;;;10.18;88.22;95141.34;4964264;28;20046;-75
2023/01/13 11:34:39;;;;;;;0.40;0.40;;;;;;;10.09;84.16;95150.88;4991576;28;20121;-74
2023/01/13 11:37:21;;;;;;;0.80;0.77;;;;;;;10.02;84.74;95148.56;4986927;28;20042;-75
2023/01/13 11:39:56;;;;;;;0.77;0.60;;;;;;;10.03;85.61;95153.53;5006232;28;20042;-74
2023/01/13 11:42:42;;;;;;;1.27;0.77;;;;;;;9.76;91.21;95148.72;4980202;28;20531;-74
2023/01/13 11:45:20;;;;;;;1.27;0.55;;;;;;;9.60;93.76;95149.88;4979159;28;20046;-74
2023/01/13 11:47:50;;;;;;;1.45;0.90;;;;;;;9.63;98.33;95149.34;5000695;28;20084;-75
2023/01/13 11:50:33;;;;;;;2.17;0.75;;;;;;;9.66;94.96;95151.44;5008428;28;20408;-76
2023/01/13 11:53:06;;;;;;;0.68;0.50;;;;;;;9.78;93.51;95154.50;5012406;28;20045;-74
2023/01/13 11:56:03;;;;;;;0.65;0.40;;;;;;;10.03;88.97;95142.25;5000477;28;20042;-75
2023/01/13 11:58:47;;;;;;;0.77;0.52;;;;;;;10.05;87.74;95137.50;5017487;28;20053;-75
2023/01/13 12:01:20;;;;;;;1.67;0.50;;;;;;;10.36;86.15;95145.19;5009480;28;20050;-74
2023/01/13 12:03:53;;;;;;;1.75;0.50;;;;;;;10.26;86.15;95145.22;5000384;28;20177;-76
2023/01/13 12:06:22;;;;;;;0.83;0.47;;;;;;;10.21;85.47;95149.47;4985859;28;20038;-76
2023/01/13 12:09:03;;;;;;;5.32;0.70;;;;;;;11.52;75.80;95146.03;5011974;28;20042;-74
2023/01/13 12:14:45;;;;;;;0.70;0.40;;;;;;;11.37;77.90;95162.03;4999776;28;20058;-75
2023/01/13 12:17:21;;;;;;;1.60;0.73;;;;;;;11.16;76.55;95162.28;5006496;28;20045;-75
2023/01/13 12:19:49;;;;;;;1.42;0.60;;;;;;;11.76;71.08;95174.19;5010284;28;20443;-74
2023/01/13 12:22:22;;;;;;;1.58;0.82;;;;;;;11.20;73.20;95158.00;5001420;28;20057;-75
2023/01/13 12:25:00;;;;;;;0.93;0.80;;;;;;;10.65;76.59;95175.97;5009750;28;20038;-73
2023/01/13 12:27:44;;;;;;;1.67;0.50;;;;;;;10.36;78.30;95192.53;5022618;28;20061;-75
2023/01/13 12:30:24;;;;;;;0.88;0.63;;;;;;;10.13;80.57;95181.63;5011729;28;20512;-76
2023/01/13 12:32:54;;;;;;;2.25;0.98;;;;;;;10.23;80.84;95173.66;4996706;28;20049;-76
2023/01/13 12:35:40;;;;;;;0.93;0.70;;;;;;;9.84;82.94;95177.06;5007857;28;20046;-74
2023/01/13 12:38:19;;;;;;;1.13;0.68;;;;;;;9.83;83.69;95183.38;5013021;28;20038;-74
2023/01/13 12:41:23;;;;;;;1.55;0.60;;;;;;;9.75;84.00;95189.19;5008227;28;20031;-74
2023/01/13 12:46:54;;;;;;;3.80;1.10;;;;;;;9.27;95.14;95209.91;4991054;28;20046;-75